createdAt,value
2018-03-22T00:01:14.036Z,-1.54
2018-03-22T00:03:42.437Z,-1.67
2018-03-22T00:06:10.893Z,-1.88
2018-03-22T00:08:39.358Z,-2.10
2018-03-22T00:11:07.769Z,-1.79
2018-03-22T00:13:36.214Z,-1.79
2018-03-22T00:16:04.617Z,-1.65
2018-03-22T00:18:33.090Z,-1.75
2018-03-22T00:21:01.493Z,-1.86
2018-03-22T00:23:29.890Z,-1.83
2018-03-22T00:25:58.321Z,-1.81
2018-03-22T00:28:26.801Z,-1.88
2018-03-22T00:30:55.200Z,-1.86
2018-03-22T00:33:23.668Z,-2.02
2018-03-22T00:35:52.045Z,-1.96
2018-03-22T00:38:20.481Z,-1.90
2018-03-22T00:40:48.842Z,-1.93
2018-03-22T00:43:17.253Z,-1.81
2018-03-22T00:45:45.679Z,-1.85
2018-03-22T00:48:14.106Z,-1.72
2018-03-22T00:50:42.498Z,-1.68
2018-03-22T00:53:10.997Z,-1.62
2018-03-22T00:55:39.384Z,-1.57
2018-03-22T00:58:07.780Z,-1.44
2018-03-22T01:00:36.214Z,-1.92
2018-03-22T01:03:04.712Z,-1.54
2018-03-22T01:05:33.199Z,-1.47
2018-03-22T01:08:01.623Z,-1.42
2018-03-22T01:10:30.006Z,-1.39
2018-03-22T01:12:58.434Z,-1.56
2018-03-22T01:15:26.893Z,-1.79
2018-03-22T01:17:55.302Z,-1.72
2018-03-22T01:20:23.712Z,-1.62
2018-03-22T01:22:52.113Z,-1.86
2018-03-22T01:25:20.491Z,-1.86
2018-03-22T01:27:48.895Z,-1.63
2018-03-22T01:30:29.165Z,-1.84
2018-03-22T01:32:57.674Z,-1.95
2018-03-22T01:35:26.124Z,-1.78
2018-03-22T01:37:54.490Z,-1.67
2018-03-22T01:40:22.948Z,-1.71
2018-03-22T01:42:51.383Z,-2.13
2018-03-22T01:45:19.841Z,-1.78
2018-03-22T01:47:48.343Z,-1.87
2018-03-22T01:50:16.707Z,-1.56
2018-03-22T01:52:57.296Z,-1.40
2018-03-22T01:55:25.665Z,-1.50
2018-03-22T01:57:54.125Z,-1.67
2018-03-22T02:00:22.544Z,-1.68
2018-03-22T02:02:50.978Z,-1.64
2018-03-22T02:05:19.453Z,-1.80
2018-03-22T02:07:47.859Z,-1.69
2018-03-22T02:10:16.537Z,-1.86
2018-03-22T02:12:44.940Z,-1.57
2018-03-22T02:15:13.508Z,-1.95
2018-03-22T02:17:41.977Z,-2.00
2018-03-22T02:20:10.416Z,-2.00
2018-03-22T02:22:38.933Z,-1.80
2018-03-22T02:25:07.380Z,-2.28
2018-03-22T02:27:35.840Z,-1.58
2018-03-22T02:30:04.338Z,-1.72
2018-03-22T02:32:32.745Z,-1.66
2018-03-22T02:35:01.226Z,-1.48
2018-03-22T02:37:29.693Z,-1.31
2018-03-22T02:39:58.108Z,-1.41
2018-03-22T02:42:26.501Z,-1.69
2018-03-22T02:44:55.009Z,-1.51
2018-03-22T02:47:23.396Z,-1.49
2018-03-22T02:49:51.844Z,-1.87
2018-03-22T02:52:20.325Z,-1.86
2018-03-22T02:54:48.698Z,-1.82
2018-03-22T02:57:17.117Z,-2.03
2018-03-22T02:59:45.722Z,-2.14
2018-03-22T03:02:14.121Z,-2.17
2018-03-22T03:04:42.561Z,-2.22
2018-03-22T03:07:10.956Z,-2.09
2018-03-22T03:09:39.380Z,-1.89
2018-03-22T03:12:07.793Z,-2.20
2018-03-22T03:14:36.217Z,-2.16
2018-03-22T03:17:04.610Z,-2.06
2018-03-22T03:19:33.028Z,-1.80
2018-03-22T03:22:01.432Z,-1.98
2018-03-22T03:24:29.910Z,-2.05
2018-03-22T03:26:58.358Z,-1.94
2018-03-22T03:29:26.832Z,-2.29
2018-03-22T03:31:55.294Z,-2.10
2018-03-22T03:34:23.704Z,-1.79
2018-03-22T03:36:52.128Z,-1.67
2018-03-22T03:39:20.556Z,-1.78
2018-03-22T03:41:48.980Z,-2.11
2018-03-22T03:44:17.414Z,-1.93
2018-03-22T03:46:45.793Z,-1.73
2018-03-22T03:49:14.505Z,-1.63
2018-03-22T03:51:42.930Z,-2.84
2018-03-22T03:54:11.364Z,-1.67
2018-03-22T03:56:39.797Z,-1.84
2018-03-22T03:59:08.202Z,-1.67
2018-03-22T04:01:36.697Z,-1.67
2018-03-22T04:04:05.244Z,-1.58
2018-03-22T04:06:33.685Z,-1.95
2018-03-22T04:09:02.089Z,-1.81
2018-03-22T04:11:30.537Z,-1.60
2018-03-22T04:13:59.020Z,-1.61
2018-03-22T04:16:27.436Z,-1.70
2018-03-22T04:18:55.828Z,-1.91
2018-03-22T04:21:24.418Z,-1.92
2018-03-22T04:23:52.848Z,-1.87
2018-03-22T04:26:21.215Z,-1.91
2018-03-22T04:28:49.621Z,-2.13
2018-03-22T04:31:18.050Z,-2.03
2018-03-22T04:33:46.452Z,-1.79
2018-03-22T04:36:14.893Z,-1.92
2018-03-22T04:38:43.285Z,-2.06
2018-03-22T04:41:11.720Z,-2.05
2018-03-22T04:43:40.160Z,-2.02
2018-03-22T04:46:08.580Z,-2.19
2018-03-22T04:48:37.013Z,-1.91
2018-03-22T04:51:05.486Z,-2.17
2018-03-22T04:53:33.885Z,-2.32
2018-03-22T04:56:02.316Z,-1.86
2018-03-22T04:58:30.712Z,-1.90
2018-03-22T05:00:59.121Z,-2.01
2018-03-22T05:03:27.576Z,-1.69
2018-03-22T05:05:55.976Z,-1.61
2018-03-22T05:08:24.416Z,-1.76
2018-03-22T05:10:52.859Z,-1.71
2018-03-22T05:13:21.261Z,-1.48
2018-03-22T05:15:49.684Z,-1.51
2018-03-22T05:18:18.132Z,-1.70
2018-03-22T05:20:46.655Z,-1.84
2018-03-22T05:23:15.072Z,-1.88
2018-03-22T05:25:43.527Z,-1.90
2018-03-22T05:28:12.103Z,-1.70
2018-03-22T05:30:40.496Z,-1.93
2018-03-22T05:33:08.942Z,-2.31
2018-03-22T05:35:37.448Z,-1.93
2018-03-22T05:38:05.892Z,-2.00
2018-03-22T05:40:34.353Z,-2.01
2018-03-22T05:43:02.807Z,-1.98
2018-03-22T05:45:31.324Z,-2.19
2018-03-22T05:47:59.803Z,-2.12
2018-03-22T05:50:28.233Z,-2.01
2018-03-22T05:52:56.661Z,-1.35
2018-03-22T05:55:25.118Z,-1.34
2018-03-22T05:57:53.563Z,-1.31
2018-03-22T06:00:21.992Z,-1.27
2018-03-22T06:02:50.430Z,-1.09
2018-03-22T06:05:18.850Z,-1.56
2018-03-22T06:07:47.281Z,-1.39
2018-03-22T06:10:15.693Z,-1.26
2018-03-22T06:12:44.156Z,-1.35
2018-03-22T06:15:12.620Z,-1.68
2018-03-22T06:17:41.195Z,-1.56
2018-03-22T06:20:09.668Z,-1.81
2018-03-22T06:22:38.136Z,-1.55
2018-03-22T06:25:06.640Z,-1.61
2018-03-22T06:27:35.089Z,-1.75
2018-03-22T06:30:03.542Z,-1.44
2018-03-22T06:32:32.008Z,-1.49
2018-03-22T06:35:00.450Z,-1.35
2018-03-22T06:37:28.942Z,-1.17
2018-03-22T06:39:57.440Z,-1.05
2018-03-22T06:42:26.056Z,-1.06
2018-03-22T06:44:54.572Z,-0.85
2018-03-22T06:47:23.084Z,-1.03
2018-03-22T06:49:51.600Z,-1.12
2018-03-22T06:52:19.977Z,-1.17
2018-03-22T06:54:48.605Z,-1.26
2018-03-22T06:57:17.078Z,-1.01
2018-03-22T06:59:45.464Z,-0.91
2018-03-22T07:02:13.954Z,-0.88
2018-03-22T07:04:42.361Z,-1.12
2018-03-22T07:07:10.811Z,-0.74
2018-03-22T07:09:39.492Z,-0.59
2018-03-22T07:12:07.865Z,-0.42
2018-03-22T07:14:36.404Z,-0.46
2018-03-22T07:17:04.841Z,-0.57
2018-03-22T07:19:33.348Z,-0.48
2018-03-22T07:22:01.741Z,-0.89
2018-03-22T07:24:30.173Z,-0.56
2018-03-22T07:26:58.607Z,-0.26
2018-03-22T07:29:27.070Z,-0.27
2018-03-22T07:31:55.560Z,-0.46
2018-03-22T07:34:24.033Z,0.00
2018-03-22T07:36:52.466Z,0.12
2018-03-22T07:39:20.901Z,-0.27
2018-03-22T07:41:49.440Z,-0.31
2018-03-22T07:44:23.664Z,-0.46
2018-03-22T07:46:52.045Z,-0.90
2018-03-22T07:49:20.454Z,-0.83
2018-03-22T07:51:48.887Z,-1.02
2018-03-22T07:54:17.376Z,-0.43
2018-03-22T07:56:45.832Z,-0.31
2018-03-22T07:59:14.240Z,-0.24
2018-03-22T08:01:42.617Z,-0.20
2018-03-22T08:04:11.160Z,0.05
2018-03-22T08:06:39.530Z,0.24
2018-03-22T08:09:07.935Z,0.28
2018-03-22T08:11:36.396Z,0.40
2018-03-22T08:14:04.903Z,0.60
2018-03-22T08:16:33.290Z,0.83
2018-03-22T08:19:01.735Z,0.93
2018-03-22T08:21:30.106Z,0.50
2018-03-22T08:23:58.519Z,0.86
2018-03-22T08:26:26.900Z,1.11
2018-03-22T08:28:55.385Z,1.34
2018-03-22T08:31:23.836Z,1.28
2018-03-22T08:33:52.368Z,1.40
2018-03-22T08:36:20.844Z,0.54
2018-03-22T08:38:49.209Z,1.40
2018-03-22T08:41:17.628Z,1.43
2018-03-22T08:43:46.037Z,1.36
2018-03-22T08:46:14.553Z,1.17
2018-03-22T08:48:42.999Z,1.35
2018-03-22T08:51:11.431Z,1.20
2018-03-22T08:53:39.877Z,1.24
2018-03-22T08:56:08.269Z,1.38
2018-03-22T08:58:36.680Z,1.36
2018-03-22T09:01:05.056Z,1.24
2018-03-22T09:03:33.521Z,1.45
2018-03-22T09:06:03.122Z,1.28
2018-03-22T09:08:31.544Z,1.10
2018-03-22T09:10:59.961Z,1.04
2018-03-22T09:13:28.404Z,1.20
2018-03-22T09:15:56.820Z,1.18
2018-03-22T09:18:25.264Z,0.92
2018-03-22T09:20:53.644Z,0.80
2018-03-22T09:23:22.467Z,0.89
2018-03-22T09:25:50.920Z,0.68
2018-03-22T09:28:19.293Z,0.77
2018-03-22T09:30:47.685Z,0.49
2018-03-22T09:33:16.045Z,0.57
2018-03-22T09:35:44.459Z,0.81
2018-03-22T09:38:12.854Z,0.98
2018-03-22T09:40:41.261Z,1.15
2018-03-22T09:43:09.629Z,0.97
2018-03-22T09:45:38.088Z,0.93
2018-03-22T09:48:06.480Z,0.90
2018-03-22T09:50:34.864Z,0.75
2018-03-22T09:53:03.297Z,0.92
2018-03-22T09:55:31.722Z,0.98
2018-03-22T09:58:00.080Z,0.95
2018-03-22T10:00:28.549Z,0.94
2018-03-22T10:02:57.014Z,0.84
2018-03-22T10:05:25.404Z,0.63
2018-03-22T10:07:53.801Z,0.82
2018-03-22T10:10:22.210Z,0.74
2018-03-22T10:12:50.631Z,0.65
2018-03-22T10:15:19.061Z,0.68
2018-03-22T10:17:47.450Z,0.79
2018-03-22T10:20:15.859Z,0.80
2018-03-22T10:22:44.349Z,0.83
2018-03-22T10:25:12.715Z,0.91
2018-03-22T10:27:41.099Z,1.12
2018-03-22T10:30:09.513Z,1.02
2018-03-22T10:32:37.960Z,1.13
2018-03-22T10:35:06.338Z,1.09
2018-03-22T10:37:34.765Z,1.05
2018-03-22T10:40:03.164Z,1.02
2018-03-22T10:42:31.545Z,1.11
2018-03-22T10:44:59.964Z,1.02
2018-03-22T10:47:28.329Z,0.92
2018-03-22T10:49:56.793Z,0.89
2018-03-22T10:52:25.245Z,0.94
2018-03-22T10:54:53.664Z,0.96
2018-03-22T10:57:22.025Z,1.30
2018-03-22T10:59:50.409Z,1.34
2018-03-22T11:02:24.256Z,1.35
2018-03-22T11:04:59.691Z,1.60
2018-03-22T11:07:28.062Z,1.65
2018-03-22T11:09:56.665Z,1.70
2018-03-22T11:12:25.078Z,1.64
2018-03-22T11:14:53.468Z,1.58
2018-03-22T11:17:21.845Z,1.62
2018-03-22T11:19:50.270Z,1.67
2018-03-22T11:22:18.655Z,1.86
2018-03-22T11:24:47.061Z,1.84
2018-03-22T11:27:15.498Z,2.24
2018-03-22T11:29:43.904Z,2.28
2018-03-22T11:32:12.307Z,2.32
2018-03-22T11:34:40.712Z,2.00
2018-03-22T11:37:09.065Z,1.93
2018-03-22T11:39:37.433Z,1.81
2018-03-22T11:42:05.872Z,1.52
2018-03-22T11:44:34.291Z,2.01
2018-03-22T11:47:02.661Z,2.00
2018-03-22T11:49:31.100Z,1.87
2018-03-22T11:51:59.483Z,1.96
2018-03-22T11:54:27.920Z,1.93
2018-03-22T11:56:56.376Z,1.49
2018-03-22T11:59:24.830Z,1.84
2018-03-22T12:01:53.218Z,1.68
2018-03-22T12:04:21.621Z,1.85
2018-03-22T12:06:50.068Z,1.80
2018-03-22T12:09:18.486Z,1.76
2018-03-22T12:11:46.901Z,1.61
2018-03-22T12:14:15.314Z,1.48
2018-03-22T12:16:43.684Z,1.45
2018-03-22T12:19:12.100Z,1.40
2018-03-22T12:21:40.631Z,1.20
2018-03-22T12:24:08.960Z,1.15
2018-03-22T12:26:37.328Z,1.30
2018-03-22T12:29:05.693Z,1.14
2018-03-22T12:31:34.161Z,0.65
2018-03-22T12:34:02.535Z,1.26
2018-03-22T12:36:30.945Z,1.19
2018-03-22T12:38:59.308Z,1.30
2018-03-22T12:41:27.772Z,1.35
2018-03-22T12:43:56.209Z,1.31
2018-03-22T12:46:24.630Z,1.45
2018-03-22T12:48:53.032Z,1.50
2018-03-22T12:51:21.442Z,1.48
2018-03-22T12:53:49.917Z,1.42
2018-03-22T12:56:18.320Z,1.59
2018-03-22T12:58:46.768Z,0.58
2018-03-22T13:01:15.120Z,0.70
2018-03-22T13:03:43.580Z,0.53
2018-03-22T13:06:11.985Z,0.56
2018-03-22T13:08:40.560Z,0.34
2018-03-22T13:11:08.997Z,0.26
2018-03-22T13:13:37.432Z,0.13
2018-03-22T13:16:05.833Z,0.11
2018-03-22T13:18:34.442Z,0.03
2018-03-22T13:21:02.797Z,0.20
2018-03-22T13:23:31.241Z,0.20
2018-03-22T13:25:59.825Z,-0.08
2018-03-22T13:28:31.681Z,0.29
2018-03-22T13:31:00.068Z,0.27
2018-03-22T13:33:28.468Z,0.41
2018-03-22T13:35:56.918Z,0.28
2018-03-22T13:38:25.412Z,0.26
2018-03-22T13:40:54.318Z,0.29
2018-03-22T13:43:23.160Z,0.19
2018-03-22T13:45:51.581Z,0.43
2018-03-22T13:48:21.158Z,0.32
2018-03-22T13:50:49.658Z,0.35
2018-03-22T13:53:18.149Z,0.71
2018-03-22T13:55:46.567Z,0.62
2018-03-22T13:58:15.092Z,0.57
2018-03-22T14:00:43.484Z,0.61
2018-03-22T14:03:11.873Z,0.50
2018-03-22T14:05:40.293Z,0.71
2018-03-22T14:08:08.730Z,0.50
2018-03-22T14:10:37.169Z,0.26
2018-03-22T14:13:05.575Z,0.29
2018-03-22T14:15:34.020Z,0.22
2018-03-22T14:18:02.496Z,0.24
2018-03-22T14:20:30.921Z,0.17
2018-03-22T14:22:59.458Z,0.26
2018-03-22T14:25:27.862Z,0.24
2018-03-22T14:27:56.585Z,0.04
2018-03-22T14:30:25.000Z,-0.04
2018-03-22T14:32:53.459Z,0.15
2018-03-22T14:35:22.015Z,0.07
2018-03-22T14:37:50.460Z,0.29
2018-03-22T14:40:19.052Z,0.09
2018-03-22T14:42:47.475Z,0.09
2018-03-22T14:45:15.880Z,0.18
2018-03-22T14:47:44.318Z,0.03
2018-03-22T14:50:12.712Z,0.04
2018-03-22T14:52:41.151Z,0.11
2018-03-22T14:55:09.585Z,-0.08
2018-03-22T14:57:37.988Z,-0.08
2018-03-22T15:00:06.460Z,-0.14
2018-03-22T15:02:34.896Z,-0.22
2018-03-22T15:05:03.285Z,-0.26
2018-03-22T15:07:31.752Z,-0.30
2018-03-22T15:10:00.120Z,-0.19
2018-03-22T15:12:28.564Z,-0.27
2018-03-22T15:14:57.016Z,-0.21
2018-03-22T15:17:25.464Z,-0.19
2018-03-22T15:19:53.888Z,-0.11
2018-03-22T15:22:22.336Z,-0.13
2018-03-22T15:24:51.227Z,-0.16
2018-03-22T15:27:19.673Z,-0.23
2018-03-22T15:29:48.090Z,-0.30
2018-03-22T15:32:16.520Z,-0.20
2018-03-22T15:34:44.926Z,-0.16
2018-03-22T15:37:13.348Z,-0.14
2018-03-22T15:39:41.884Z,-0.35
2018-03-22T15:42:10.315Z,-0.24
2018-03-22T15:44:38.793Z,-0.20
2018-03-22T15:47:07.217Z,-0.13
2018-03-22T15:49:35.582Z,-0.33
2018-03-22T15:52:03.992Z,-0.25
2018-03-22T15:54:32.368Z,-0.12
2018-03-22T15:57:01.569Z,-0.52
2018-03-22T15:59:30.088Z,-0.29
2018-03-22T16:01:58.492Z,-0.27
2018-03-22T16:04:29.185Z,-0.30
2018-03-22T16:06:57.641Z,-0.45
2018-03-22T16:09:25.990Z,-0.62
2018-03-22T16:11:54.524Z,-0.35
2018-03-22T16:14:22.949Z,-0.34
2018-03-22T16:16:51.359Z,-0.29
2018-03-22T16:19:19.808Z,-0.34
2018-03-22T16:21:48.560Z,-0.46
2018-03-22T16:24:16.988Z,-0.50
2018-03-22T16:26:45.360Z,-0.49
2018-03-22T16:29:13.729Z,-0.41
2018-03-22T16:31:42.355Z,-0.44
2018-03-22T16:34:10.749Z,-0.46
2018-03-22T16:36:39.164Z,-0.48
2018-03-22T16:39:07.617Z,-0.42
2018-03-22T16:41:36.077Z,-0.53
2018-03-22T16:44:04.496Z,-0.44
2018-03-22T16:46:32.892Z,-0.52
2018-03-22T16:49:01.265Z,-0.47
2018-03-22T16:51:29.692Z,-0.46
2018-03-22T16:53:58.088Z,-0.46
2018-03-22T16:56:26.479Z,-0.46
2018-03-22T16:58:54.876Z,-0.53
2018-03-22T17:01:23.280Z,-0.70
2018-03-22T17:03:51.700Z,-0.50
2018-03-22T17:06:20.106Z,-0.48
2018-03-22T17:08:48.654Z,-0.61
2018-03-22T17:11:17.034Z,-0.50
2018-03-22T17:13:45.470Z,-0.46
2018-03-22T17:16:13.856Z,-0.59
2018-03-22T17:18:42.285Z,-0.61
2018-03-22T17:21:10.696Z,-0.66
2018-03-22T17:23:39.105Z,-0.64
2018-03-22T17:26:07.464Z,-0.72
2018-03-22T17:28:35.900Z,-0.75
2018-03-22T17:31:04.269Z,-0.80
2018-03-22T17:33:32.668Z,-0.72
2018-03-22T17:36:01.039Z,-0.65
2018-03-22T17:38:29.475Z,-0.63
2018-03-22T17:40:57.968Z,-0.69
2018-03-22T17:43:26.380Z,-0.75
2018-03-22T17:45:54.757Z,-0.85
2018-03-22T17:48:23.129Z,-0.89
2018-03-22T17:50:51.600Z,-0.90
2018-03-22T17:53:20.029Z,-0.83
2018-03-22T17:55:49.137Z,-0.88
2018-03-22T17:58:17.531Z,-0.78
2018-03-22T18:00:45.939Z,-0.77
2018-03-22T18:03:14.375Z,-0.77
2018-03-22T18:05:42.772Z,-0.80
2018-03-22T18:08:11.180Z,-0.81
2018-03-22T18:10:39.568Z,-0.83
2018-03-22T18:13:08.019Z,-0.92
2018-03-22T18:15:36.373Z,-0.83
2018-03-22T18:18:04.821Z,-0.86
2018-03-22T18:20:33.219Z,-0.91
2018-03-22T18:23:01.641Z,-0.82
2018-03-22T18:25:30.028Z,-0.87
2018-03-22T18:27:58.441Z,-0.88
2018-03-22T18:30:26.908Z,-0.87
2018-03-22T18:32:55.307Z,-0.88
2018-03-22T18:35:23.746Z,-0.88
2018-03-22T18:37:52.148Z,-0.88
2018-03-22T18:40:20.525Z,-0.80
2018-03-22T18:42:48.943Z,-1.01
2018-03-22T18:45:17.469Z,-0.94
2018-03-22T18:47:45.885Z,-0.80
2018-03-22T18:50:14.314Z,-0.87
2018-03-22T18:52:42.694Z,-0.93
2018-03-22T18:55:11.109Z,-0.80
2018-03-22T18:57:39.479Z,-0.91
2018-03-22T19:00:07.968Z,-0.93
2018-03-22T19:02:36.384Z,-0.91
2018-03-22T19:05:04.760Z,-0.94
2018-03-22T19:07:33.205Z,-1.02
2018-03-22T19:10:01.573Z,-1.19
2018-03-22T19:12:30.008Z,-1.51
2018-03-22T19:14:58.369Z,-1.16
2018-03-22T19:17:26.803Z,-1.11
2018-03-22T19:19:55.401Z,-1.11
2018-03-22T19:22:23.960Z,-1.08
2018-03-22T19:24:52.336Z,-0.99
2018-03-22T19:27:20.771Z,-1.05
2018-03-22T19:29:49.150Z,-1.16
2018-03-22T19:32:17.531Z,-1.09
2018-03-22T19:34:45.975Z,-1.06
2018-03-22T19:37:14.343Z,-0.93
2018-03-22T19:39:42.741Z,-0.90
2018-03-22T19:42:11.154Z,-1.01
2018-03-22T19:44:39.552Z,-0.88
2018-03-22T19:47:07.950Z,-0.97
2018-03-22T19:49:36.376Z,-1.14
2018-03-22T19:52:04.857Z,-1.07
2018-03-22T19:54:33.223Z,-1.10
2018-03-22T19:57:01.645Z,-1.16
2018-03-22T19:59:30.045Z,-1.10
2018-03-22T20:01:58.418Z,-1.09
2018-03-22T20:04:26.843Z,-1.12
2018-03-22T20:06:55.225Z,-1.13
2018-03-22T20:09:23.593Z,-1.40
2018-03-22T20:11:52.124Z,-1.28
2018-03-22T20:14:20.688Z,-1.19
2018-03-22T20:16:49.171Z,-1.04
2018-03-22T20:19:18.348Z,-1.03
2018-03-22T20:21:47.171Z,-1.00
2018-03-22T20:24:15.758Z,-0.97
2018-03-22T20:26:44.309Z,-1.05
2018-03-22T20:29:12.928Z,-0.95
2018-03-22T20:31:41.549Z,-1.03
2018-03-22T20:34:10.334Z,-0.85
2018-03-22T20:36:38.991Z,-1.01
2018-03-22T20:39:07.406Z,-1.02
2018-03-22T20:41:36.133Z,-1.09
2018-03-22T20:44:04.754Z,-0.99
2018-03-22T20:46:33.367Z,-1.01
2018-03-22T20:49:01.735Z,-1.22
2018-03-22T20:51:30.168Z,-1.06
2018-03-22T20:53:58.548Z,-1.14
2018-03-22T20:56:26.948Z,-1.09
2018-03-22T20:58:55.363Z,-1.20
2018-03-22T21:01:23.743Z,-1.33
2018-03-22T21:03:52.229Z,-1.20
2018-03-22T21:06:20.569Z,-1.09
2018-03-22T21:08:49.004Z,-1.26
2018-03-22T21:11:17.469Z,-1.05
2018-03-22T21:13:45.904Z,-1.25
2018-03-22T21:16:14.283Z,-1.52
2018-03-22T21:18:42.744Z,-1.19
2018-03-22T21:21:11.170Z,-1.23
2018-03-22T21:23:39.668Z,-1.28
2018-03-22T21:26:08.082Z,-1.26
2018-03-22T21:28:36.491Z,-1.29
2018-03-22T21:31:04.890Z,-1.26
2018-03-22T21:33:33.304Z,-1.33
2018-03-22T21:36:01.656Z,-1.34
2018-03-22T21:38:30.073Z,-1.34
2018-03-22T21:40:58.556Z,-1.42
2018-03-22T21:43:26.916Z,-1.41
2018-03-22T21:45:55.300Z,-1.39
2018-03-22T21:48:23.668Z,-1.40
2018-03-22T21:50:52.176Z,-1.40
2018-03-22T21:53:20.647Z,-1.35
2018-03-22T21:55:49.220Z,-1.27
2018-03-22T21:58:17.590Z,-1.22
2018-03-22T22:00:45.942Z,-1.23
2018-03-22T22:03:14.335Z,-1.24
2018-03-22T22:05:42.774Z,-1.24
2018-03-22T22:08:11.155Z,-1.12
2018-03-22T22:10:39.528Z,-1.07
2018-03-22T22:13:07.958Z,-1.12
2018-03-22T22:15:36.337Z,-1.16
2018-03-22T22:18:04.790Z,-1.05
2018-03-22T22:20:33.196Z,-1.07
2018-03-22T22:23:01.596Z,-0.96
2018-03-22T22:25:29.971Z,-1.00
2018-03-22T22:27:58.393Z,-1.00
2018-03-22T22:30:26.765Z,-0.82
2018-03-22T22:32:55.141Z,-1.00
2018-03-22T22:35:23.570Z,-1.04
2018-03-22T22:37:51.952Z,-0.78
2018-03-22T22:40:20.360Z,-0.87
2018-03-22T22:42:48.827Z,-0.84
2018-03-22T22:45:17.232Z,-0.81
2018-03-22T22:47:45.591Z,-0.94
2018-03-22T22:50:14.036Z,-0.75
2018-03-22T22:52:42.411Z,-0.69
2018-03-22T22:55:10.780Z,-0.64
2018-03-22T22:57:39.179Z,-0.70
2018-03-22T23:00:07.590Z,-0.85
2018-03-22T23:02:36.109Z,-0.86
2018-03-22T23:05:04.544Z,-0.97
2018-03-22T23:07:32.937Z,-1.14
2018-03-22T23:10:01.326Z,-1.29
2018-03-22T23:12:29.793Z,-1.25
2018-03-22T23:14:58.236Z,-2.25
2018-03-22T23:17:26.829Z,-1.34
2018-03-22T23:19:55.343Z,-1.29
2018-03-22T23:22:23.756Z,-1.30
2018-03-22T23:24:52.154Z,-1.38
2018-03-22T23:27:20.522Z,-1.31
2018-03-22T23:29:48.968Z,-1.35
2018-03-22T23:32:17.472Z,-1.41
2018-03-22T23:34:45.889Z,-2.28
2018-03-22T23:37:14.372Z,-1.52
2018-03-22T23:39:42.793Z,-1.62
2018-03-22T23:42:11.297Z,-1.66
2018-03-22T23:44:39.777Z,-1.68
2018-03-22T23:47:08.180Z,-1.67
2018-03-22T23:49:36.664Z,-1.72
2018-03-22T23:52:05.038Z,-1.70
2018-03-22T23:54:33.557Z,-1.71
2018-03-22T23:57:01.977Z,-1.76
2018-03-22T23:59:30.467Z,-1.77
